Time;durP1;ratioP1;P1;durP2;ratioP2;P2;SDS_P1;SDS_P2;PMS_P1;PMS_P2;Temp;Humidity;BMP_temperature;BMP_pressure;BME280_temperature;BME280_humidity;BME280_pressure;Samples;Min_cycle;Max_cycle;Signal;HPM_P1;HPM_P2
2021/08/18 00:00:13;;;;;;;14.45;6.93;;;12.60;99.90;;;;;;4950856;28;20061;-85
2021/08/18 00:02:38;;;;;;;14.77;6.97;;;12.60;99.90;;;;;;4951950;28;20027;-85
2021/08/18 00:05:06;;;;;;;11.30;6.30;;;12.60;99.90;;;;;;4950078;28;20023;-86
2021/08/18 00:07:32;;;;;;;12.32;6.78;;;12.60;99.90;;;;;;4950655;28;20023;-87
2021/08/18 00:09:57;;;;;;;15.18;7.00;;;12.60;99.90;;;;;;4958923;28;20030;-86
2021/08/18 00:12:23;;;;;;;12.90;6.15;;;12.50;99.90;;;;;;4950038;28;20015;-86
2021/08/18 00:14:50;;;;;;;14.23;7.35;;;12.50;99.90;;;;;;4946267;28;20027;-86
2021/08/18 00:17:16;;;;;;;13.52;7.07;;;12.50;99.90;;;;;;4946827;28;20031;-85
2021/08/18 00:19:41;;;;;;;11.98;6.80;;;12.50;99.90;;;;;;4948863;28;20162;-86
2021/08/18 00:22:07;;;;;;;14.13;7.20;;;12.50;99.90;;;;;;4950452;28;20031;-87
2021/08/18 00:24:33;;;;;;;12.93;7.03;;;12.50;99.90;;;;;;4949526;28;20019;-86
2021/08/18 00:26:58;;;;;;;15.52;7.07;;;12.50;99.90;;;;;;4951250;29;20495;-85
2021/08/18 00:29:24;;;;;;;11.55;6.82;;;12.50;99.90;;;;;;4945731;28;20023;-86
2021/08/18 00:31:50;;;;;;;11.63;7.00;;;12.50;99.90;;;;;;4950856;29;20571;-85
2021/08/18 00:34:15;;;;;;;15.60;7.07;;;12.50;99.90;;;;;;4952315;28;20022;-85
2021/08/18 00:36:41;;;;;;;10.52;6.22;;;12.40;99.90;;;;;;4952838;28;20028;-87
2021/08/18 00:39:06;;;;;;;15.35;7.35;;;12.40;99.90;;;;;;4949392;28;20035;-86
2021/08/18 00:41:33;;;;;;;13.25;7.30;;;12.40;99.90;;;;;;4950195;28;20019;-84
2021/08/18 00:43:58;;;;;;;16.27;7.68;;;12.50;99.90;;;;;;4950038;28;20038;-84
2021/08/18 00:46:24;;;;;;;12.90;6.55;;;12.50;99.90;;;;;;4949682;28;20031;-86
2021/08/18 00:48:49;;;;;;;12.90;7.07;;;12.40;99.90;;;;;;4950200;28;20027;-85
2021/08/18 00:51:15;;;;;;;12.75;6.85;;;12.40;99.90;;;;;;4950168;29;20114;-84
2021/08/18 00:53:41;;;;;;;10.27;7.15;;;12.40;99.90;;;;;;4951513;28;20074;-85
2021/08/18 00:56:09;;;;;;;10.80;7.57;;;12.40;99.90;;;;;;4949481;29;20077;-85
2021/08/18 00:58:35;;;;;;;12.18;6.65;;;12.40;99.90;;;;;;4948716;28;20408;-87
2021/08/18 01:01:01;;;;;;;14.57;7.80;;;12.40;99.90;;;;;;4954747;28;20023;-85
2021/08/18 01:03:28;;;;;;;13.68;7.47;;;12.40;99.90;;;;;;4947348;28;20015;-84
2021/08/18 01:05:54;;;;;;;10.48;6.60;;;12.40;99.90;;;;;;4946323;28;20089;-85
2021/08/18 01:08:19;;;;;;;15.38;7.65;;;12.30;99.90;;;;;;4950225;28;20019;-86
2021/08/18 01:10:45;;;;;;;11.75;6.22;;;12.40;99.90;;;;;;4953221;28;20435;-85
2021/08/18 01:13:11;;;;;;;13.07;7.22;;;12.30;99.90;;;;;;4952930;28;20035;-86
2021/08/18 01:15:37;;;;;;;15.00;6.25;;;12.30;99.90;;;;;;4952899;29;20019;-84
2021/08/18 01:18:05;;;;;;;10.05;6.57;;;12.40;99.90;;;;;;4953218;29;20031;-83
2021/08/18 01:20:36;;;;;;;13.05;6.70;;;12.40;99.90;;;;;;4954549;28;20049;-85
2021/08/18 01:23:05;;;;;;;14.77;7.82;;;12.40;99.90;;;;;;4955755;28;20027;-84
2021/08/18 01:25:31;;;;;;;15.60;6.68;;;12.40;99.90;;;;;;4952930;28;20030;-84
2021/08/18 01:28:00;;;;;;;24.15;7.57;;;12.40;99.90;;;;;;4960191;28;20079;-86
2021/08/18 01:30:28;;;;;;;14.02;7.57;;;12.40;99.90;;;;;;4953099;29;20024;-85
2021/08/18 01:33:03;;;;;;;13.98;7.15;;;12.40;99.90;;;;;;4952972;28;20031;-84
2021/08/18 01:35:32;;;;;;;17.38;6.82;;;12.40;99.90;;;;;;4952730;28;20023;-85
2021/08/18 01:38:00;;;;;;;13.07;7.75;;;12.30;99.90;;;;;;4953899;28;20110;-85
2021/08/18 01:40:26;;;;;;;16.42;7.03;;;12.40;99.90;;;;;;4956469;28;20567;-85
2021/08/18 01:42:52;;;;;;;14.55;7.45;;;12.30;99.90;;;;;;4949843;28;20110;-85
2021/08/18 01:45:23;;;;;;;9.15;6.43;;;12.40;99.90;;;;;;4960844;28;20089;-83
2021/08/18 01:47:50;;;;;;;11.60;6.55;;;12.40;99.90;;;;;;4952895;29;20027;-86
2021/08/18 01:50:16;;;;;;;12.95;7.32;;;12.40;99.90;;;;;;4953204;28;20491;-85
2021/08/18 01:52:42;;;;;;;16.33;7.82;;;12.40;99.90;;;;;;4957775;28;20011;-86
2021/08/18 01:55:09;;;;;;;12.13;6.25;;;12.30;99.90;;;;;;4951783;28;20035;-85
2021/08/18 01:57:34;;;;;;;12.23;6.85;;;12.30;99.90;;;;;;4953151;29;20054;-85
2021/08/18 02:00:00;;;;;;;12.40;6.88;;;12.30;99.90;;;;;;4953452;28;20391;-86
2021/08/18 02:02:29;;;;;;;11.90;6.57;;;12.40;99.90;;;;;;4948277;28;20023;-83
2021/08/18 02:04:56;;;;;;;15.23;7.60;;;12.30;99.90;;;;;;4955252;28;20517;-86
2021/08/18 02:07:22;;;;;;;14.75;7.40;;;12.40;99.90;;;;;;4955574;28;20027;-85
2021/08/18 02:09:47;;;;;;;9.68;6.78;;;12.40;99.90;;;;;;4952872;29;20114;-85
2021/08/18 02:12:13;;;;;;;11.70;6.78;;;12.40;99.90;;;;;;4953207;29;20023;-85
2021/08/18 02:14:39;;;;;;;13.68;6.97;;;12.40;99.90;;;;;;4955911;28;20035;-84
2021/08/18 02:17:05;;;;;;;10.52;6.55;;;12.40;99.90;;;;;;4953579;29;20020;-85
2021/08/18 02:19:31;;;;;;;12.90;7.32;;;12.40;99.90;;;;;;4954268;28;20107;-85
2021/08/18 02:24:59;;;;;;;11.10;7.50;;;12.40;99.90;;;;;;5130412;23;20520;-48
2021/08/18 02:27:25;;;;;;;12.95;7.75;;;12.40;99.90;;;;;;4971755;28;20019;-51
2021/08/18 02:29:51;;;;;;;10.55;6.93;;;12.40;99.90;;;;;;4971605;28;20545;-49
2021/08/18 02:32:16;;;;;;;12.02;7.57;;;12.40;99.90;;;;;;4970708;28;20015;-47
2021/08/18 02:34:42;;;;;;;10.82;6.95;;;12.40;99.90;;;;;;4987682;28;20121;-49
2021/08/18 02:37:07;;;;;;;13.27;6.47;;;12.40;99.90;;;;;;4990602;28;20539;-52
2021/08/18 02:39:33;;;;;;;14.23;6.95;;;12.40;99.90;;;;;;4987118;28;20110;-50
2021/08/18 02:41:59;;;;;;;10.05;6.50;;;12.40;99.90;;;;;;4989491;28;20038;-46
2021/08/18 02:44:24;;;;;;;8.82;6.18;;;12.30;99.90;;;;;;4986270;28;20484;-47
2021/08/18 02:46:50;;;;;;;12.73;6.38;;;12.30;99.90;;;;;;4987133;28;20080;-52
2021/08/18 02:49:17;;;;;;;13.95;7.53;;;12.30;99.90;;;;;;4987572;28;20563;-49
2021/08/18 02:51:44;;;;;;;15.45;6.80;;;12.30;99.90;;;;;;4985572;28;20081;-47
2021/08/18 02:54:10;;;;;;;12.18;7.88;;;12.30;99.90;;;;;;4989752;28;20026;-51
2021/08/18 02:56:36;;;;;;;12.70;6.07;;;12.30;99.90;;;;;;4985750;28;20054;-48
2021/08/18 02:59:01;;;;;;;14.65;6.75;;;12.30;99.90;;;;;;4988891;28;20034;-46
2021/08/18 03:01:27;;;;;;;10.90;7.03;;;12.30;99.90;;;;;;4985609;28;20015;-46
2021/08/18 03:03:52;;;;;;;8.70;5.80;;;12.30;99.90;;;;;;4987111;28;20038;-48
2021/08/18 03:06:18;;;;;;;12.18;6.43;;;12.30;99.90;;;;;;4989882;28;20026;-47
2021/08/18 03:08:43;;;;;;;11.75;6.63;;;12.30;99.90;;;;;;4986533;28;20027;-48
2021/08/18 03:11:09;;;;;;;10.90;6.32;;;12.30;99.90;;;;;;4988965;28;20026;-47
2021/08/18 03:13:35;;;;;;;9.60;6.03;;;12.30;99.90;;;;;;4985767;28;20031;-49
2021/08/18 03:16:00;;;;;;;11.52;6.85;;;12.20;99.90;;;;;;4988093;28;20030;-46
2021/08/18 03:18:27;;;;;;;9.13;6.00;;;12.20;99.90;;;;;;4986338;28;20101;-51
2021/08/18 03:20:53;;;;;;;11.32;6.90;;;12.20;99.90;;;;;;4986693;28;20022;-49
2021/08/18 03:23:19;;;;;;;8.38;5.30;;;12.20;99.90;;;;;;4989164;28;20030;-51
2021/08/18 03:25:44;;;;;;;9.25;5.47;;;12.10;99.90;;;;;;4971071;28;20057;-48
2021/08/18 03:28:10;;;;;;;11.35;6.13;;;12.10;99.90;;;;;;4987174;28;20034;-48
2021/08/18 03:30:36;;;;;;;9.68;6.68;;;12.10;99.90;;;;;;4984531;28;20110;-49
2021/08/18 03:33:01;;;;;;;11.25;6.05;;;12.10;99.90;;;;;;4985730;28;20022;-49
2021/08/18 03:35:27;;;;;;;10.13;6.60;;;12.10;99.90;;;;;;4988437;28;20089;-51
2021/08/18 03:37:53;;;;;;;14.32;7.40;;;12.10;99.90;;;;;;4985951;28;20030;-48
2021/08/18 03:40:18;;;;;;;12.32;7.03;;;12.10;99.90;;;;;;4987181;28;20033;-49
2021/08/18 03:42:45;;;;;;;9.80;6.55;;;12.00;99.90;;;;;;4984565;28;20482;-49
2021/08/18 03:45:11;;;;;;;9.20;6.43;;;12.00;99.90;;;;;;4987451;28;20392;-47
2021/08/18 03:47:38;;;;;;;13.18;7.43;;;12.00;99.90;;;;;;4983913;28;20050;-46
2021/08/18 03:50:04;;;;;;;11.43;6.28;;;12.10;99.90;;;;;;4986776;28;20081;-46
2021/08/18 03:52:30;;;;;;;12.98;6.60;;;12.00;99.90;;;;;;4988562;28;20022;-49
2021/08/18 03:54:56;;;;;;;12.20;6.28;;;12.00;99.90;;;;;;4983808;28;20106;-52
2021/08/18 03:57:21;;;;;;;10.45;6.30;;;12.10;99.90;;;;;;4987803;28;20026;-51
2021/08/18 03:59:47;;;;;;;17.95;7.43;;;12.10;99.90;;;;;;4984052;28;20108;-48
2021/08/18 04:02:12;;;;;;;9.60;6.70;;;12.10;99.90;;;;;;4987042;28;20089;-49
2021/08/18 04:04:38;;;;;;;11.23;6.63;;;12.10;99.90;;;;;;4983615;28;20031;-47
2021/08/18 04:07:04;;;;;;;15.80;7.93;;;12.00;99.90;;;;;;4986237;28;20054;-47
2021/08/18 04:09:29;;;;;;;10.63;6.95;;;12.10;99.90;;;;;;4988548;28;20033;-46
2021/08/18 04:11:55;;;;;;;13.77;7.68;;;12.10;99.90;;;;;;4983154;28;20117;-51
2021/08/18 04:14:20;;;;;;;13.43;8.38;;;12.10;99.90;;;;;;4987694;28;20052;-48
2021/08/18 04:16:46;;;;;;;10.77;6.88;;;12.10;99.90;;;;;;4984525;28;20019;-50
2021/08/18 04:19:11;;;;;;;15.65;8.95;;;12.10;99.90;;;;;;4985873;28;20489;-47
2021/08/18 04:21:37;;;;;;;11.55;7.57;;;12.10;99.90;;;;;;4983234;28;20035;-49
2021/08/18 04:24:03;;;;;;;13.73;8.10;;;12.20;99.90;;;;;;4985650;28;20106;-54
2021/08/18 04:26:28;;;;;;;13.90;9.02;;;12.20;99.90;;;;;;4987987;28;20050;-47
2021/08/18 04:28:54;;;;;;;12.15;7.70;;;12.20;99.90;;;;;;4987553;28;20030;-47
2021/08/18 04:31:20;;;;;;;14.18;8.38;;;12.20;99.90;;;;;;4982314;28;20352;-47
2021/08/18 04:33:46;;;;;;;14.48;8.65;;;12.20;99.90;;;;;;4985949;28;20145;-49
2021/08/18 04:36:11;;;;;;;14.88;7.93;;;12.30;99.90;;;;;;4987501;28;20022;-52
2021/08/18 04:38:37;;;;;;;11.10;8.85;;;12.30;99.90;;;;;;4985238;28;20030;-48
2021/08/18 04:41:02;;;;;;;14.88;8.05;;;12.30;99.90;;;;;;4987017;28;20015;-49
2021/08/18 04:43:28;;;;;;;13.88;8.25;;;12.40;99.90;;;;;;5006058;23;20136;-53
2021/08/18 04:45:53;;;;;;;13.90;8.88;;;12.40;99.90;;;;;;4987444;28;20018;-50
2021/08/18 04:48:19;;;;;;;11.27;7.90;;;12.40;99.90;;;;;;4988424;28;20500;-51
2021/08/18 04:50:45;;;;;;;17.27;8.80;;;12.50;99.90;;;;;;4988816;28;20022;-51
2021/08/18 04:53:12;;;;;;;12.30;7.90;;;12.50;99.90;;;;;;4988553;28;20022;-49
2021/08/18 04:55:39;;;;;;;12.23;7.57;;;12.50;99.90;;;;;;4984643;28;20034;-49
2021/08/18 04:58:05;;;;;;;13.93;8.70;;;12.50;99.90;;;;;;4987621;28;20477;-49
2021/08/18 05:00:31;;;;;;;13.20;8.20;;;12.50;99.90;;;;;;4984054;28;20023;-49
2021/08/18 05:02:56;;;;;;;12.35;8.68;;;12.60;99.90;;;;;;4986121;28;20669;-50
2021/08/18 05:05:22;;;;;;;12.40;7.25;;;12.60;99.90;;;;;;4983195;28;20018;-50
2021/08/18 05:07:48;;;;;;;12.23;7.80;;;12.70;99.90;;;;;;4985574;28;20113;-51
2021/08/18 05:10:13;;;;;;;10.65;8.15;;;12.80;99.90;;;;;;4987644;28;20162;-51
2021/08/18 05:12:39;;;;;;;13.02;7.45;;;12.80;99.90;;;;;;4985062;28;20034;-51
2021/08/18 05:15:05;;;;;;;11.35;7.72;;;12.70;99.90;;;;;;4986761;28;20026;-49
2021/08/18 05:17:31;;;;;;;10.75;7.32;;;12.80;99.90;;;;;;4983968;28;20484;-51
2021/08/18 05:19:57;;;;;;;12.27;7.53;;;12.80;99.90;;;;;;4986243;28;20031;-52
2021/08/18 05:22:23;;;;;;;13.77;8.02;;;12.90;99.90;;;;;;4988553;28;20019;-51
2021/08/18 05:24:48;;;;;;;10.02;7.40;;;12.90;99.90;;;;;;4984551;28;20026;-50
2021/08/18 05:27:14;;;;;;;11.55;7.90;;;13.00;99.90;;;;;;4986159;28;20049;-50
2021/08/18 05:29:39;;;;;;;11.50;7.75;;;13.00;99.90;;;;;;4987264;28;20022;-51
2021/08/18 05:32:05;;;;;;;13.77;7.82;;;13.00;99.90;;;;;;4981207;28;20030;-51
2021/08/18 05:34:31;;;;;;;12.48;8.05;;;13.10;99.90;;;;;;4986002;28;20030;-49
2021/08/18 05:36:56;;;;;;;15.02;7.65;;;13.10;99.90;;;;;;4987729;28;20034;-49
2021/08/18 05:39:22;;;;;;;12.40;8.00;;;13.10;99.90;;;;;;4983557;28;20058;-50
2021/08/18 05:41:48;;;;;;;12.40;7.85;;;13.10;99.90;;;;;;4988431;28;20025;-50
2021/08/18 05:44:13;;;;;;;11.75;7.30;;;13.20;99.90;;;;;;4980841;28;20043;-50
2021/08/18 05:46:39;;;;;;;11.13;7.72;;;13.20;99.90;;;;;;4988457;28;20029;-51
2021/08/18 05:49:05;;;;;;;10.77;6.57;;;13.30;99.90;;;;;;4981663;28;20026;-54
2021/08/18 05:51:30;;;;;;;10.32;6.50;;;13.40;99.90;;;;;;4986842;28;20026;-54
2021/08/18 05:53:56;;;;;;;11.85;6.93;;;13.40;99.90;;;;;;4987518;28;20026;-50
2021/08/18 05:56:22;;;;;;;9.73;6.88;;;13.50;99.90;;;;;;4985833;28;20019;-50
2021/08/18 05:58:47;;;;;;;10.45;7.10;;;13.50;99.90;;;;;;4992128;28;20019;-51
2021/08/18 06:01:13;;;;;;;11.82;6.82;;;13.60;99.90;;;;;;4984561;28;20101;-50
2021/08/18 06:03:39;;;;;;;11.55;7.57;;;13.60;99.90;;;;;;4991265;28;20034;-50
2021/08/18 06:06:04;;;;;;;11.48;7.10;;;13.70;99.90;;;;;;4983988;28;20060;-54
2021/08/18 06:08:30;;;;;;;9.93;6.40;;;13.70;99.90;;;;;;4988967;28;20112;-50
2021/08/18 06:10:56;;;;;;;8.80;6.85;;;13.80;99.90;;;;;;5006253;28;20022;-50
2021/08/18 06:13:23;;;;;;;10.13;6.07;;;13.80;99.90;;;;;;4986185;28;20031;-53
2021/08/18 06:15:49;;;;;;;7.50;5.82;;;13.80;99.90;;;;;;4986876;28;20502;-51
2021/08/18 06:18:15;;;;;;;8.32;6.63;;;13.80;99.90;;;;;;4988756;28;20438;-51
2021/08/18 06:20:40;;;;;;;11.70;6.78;;;13.90;99.90;;;;;;4991782;28;20018;-49
2021/08/18 06:23:06;;;;;;;7.78;6.18;;;13.90;99.90;;;;;;4989255;28;20031;-50
2021/08/18 06:25:31;;;;;;;8.20;5.20;;;13.90;99.90;;;;;;4989120;28;20050;-49
2021/08/18 06:27:57;;;;;;;7.43;5.00;;;14.00;99.90;;;;;;4989844;28;20030;-50
2021/08/18 06:30:23;;;;;;;6.78;5.05;;;14.00;99.90;;;;;;4987294;28;20030;-49
2021/08/18 06:32:48;;;;;;;8.52;5.40;;;14.00;99.90;;;;;;4986589;28;20038;-50
2021/08/18 06:35:14;;;;;;;6.38;5.15;;;14.00;99.90;;;;;;4990199;28;20022;-50
2021/08/18 06:37:40;;;;;;;6.15;4.65;;;14.00;99.90;;;;;;4987050;28;20023;-50
2021/08/18 06:40:07;;;;;;;6.95;5.15;;;14.10;99.90;;;;;;4989553;28;20026;-48
2021/08/18 06:42:33;;;;;;;6.38;4.85;;;14.10;99.90;;;;;;4986154;28;20023;-48
2021/08/18 06:44:58;;;;;;;7.97;5.53;;;14.10;99.90;;;;;;4988492;28;20046;-52
2021/08/18 06:47:24;;;;;;;6.68;5.03;;;14.10;99.90;;;;;;4985545;28;20452;-49
2021/08/18 06:49:49;;;;;;;5.53;4.20;;;14.10;99.90;;;;;;4986443;28;20500;-50
2021/08/18 06:52:15;;;;;;;6.50;4.47;;;14.10;99.90;;;;;;4989847;28;20037;-50
2021/08/18 06:54:40;;;;;;;4.97;4.50;;;14.10;99.90;;;;;;4986333;28;20019;-50
2021/08/18 06:57:06;;;;;;;6.40;4.03;;;14.10;99.90;;;;;;4987684;28;20551;-49
2021/08/18 06:59:31;;;;;;;5.00;4.15;;;14.10;99.90;;;;;;4977014;28;20102;-50
2021/08/18 07:01:57;;;;;;;6.43;3.65;;;14.20;99.90;;;;;;4976471;28;20033;-49
2021/08/18 07:04:23;;;;;;;7.97;3.95;;;14.20;99.90;;;;;;4979285;28;20562;-50
2021/08/18 07:06:48;;;;;;;7.65;4.15;;;14.20;99.90;;;;;;4986298;28;20027;-51
2021/08/18 07:09:14;;;;;;;4.15;3.30;;;14.20;99.90;;;;;;4989850;28;20549;-49
2021/08/18 07:11:40;;;;;;;4.90;3.10;;;14.20;99.90;;;;;;4987047;28;20583;-49
2021/08/18 07:14:06;;;;;;;4.53;3.42;;;14.30;99.90;;;;;;4989416;28;20030;-49
2021/08/18 07:16:33;;;;;;;3.97;3.00;;;14.30;99.90;;;;;;4985003;28;20533;-50
2021/08/18 07:18:59;;;;;;;3.47;2.90;;;14.30;99.90;;;;;;4988414;28;20657;-48
2021/08/18 07:21:26;;;;;;;7.03;3.35;;;14.30;99.90;;;;;;4985737;28;20025;-49
2021/08/18 07:23:53;;;;;;;5.53;3.30;;;14.30;99.90;;;;;;4988193;28;20028;-50
2021/08/18 07:26:21;;;;;;;3.65;2.90;;;14.40;99.90;;;;;;4982609;28;20038;-48
2021/08/18 07:28:47;;;;;;;3.58;3.28;;;14.40;99.90;;;;;;4989044;28;20042;-50
2021/08/18 07:31:13;;;;;;;4.53;3.05;;;14.50;99.90;;;;;;4984327;28;20030;-50
2021/08/18 07:33:39;;;;;;;4.50;2.80;;;14.50;99.90;;;;;;4986513;28;20084;-49
2021/08/18 07:36:05;;;;;;;5.63;2.70;;;14.50;99.90;;;;;;4988430;28;20006;-47
2021/08/18 07:38:30;;;;;;;3.30;3.00;;;14.50;99.90;;;;;;4983342;28;20037;-47
2021/08/18 07:40:56;;;;;;;6.68;5.15;;;14.50;99.90;;;;;;4972840;28;20117;-48
2021/08/18 07:43:22;;;;;;;4.40;2.58;;;14.50;99.90;;;;;;4977344;28;20030;-49
2021/08/18 07:45:48;;;;;;;3.53;2.92;;;14.50;99.90;;;;;;4988914;28;20077;-50
2021/08/18 07:48:13;;;;;;;3.55;2.90;;;14.50;99.90;;;;;;4985519;28;20113;-48
2021/08/18 07:50:39;;;;;;;2.92;2.63;;;14.60;99.90;;;;;;4987905;28;20031;-46
2021/08/18 07:53:04;;;;;;;4.72;2.88;;;14.60;99.90;;;;;;4989219;28;20034;-48
2021/08/18 07:55:30;;;;;;;5.97;2.83;;;14.70;99.90;;;;;;4986735;28;20021;-52
2021/08/18 07:57:56;;;;;;;3.28;2.83;;;14.70;99.90;;;;;;4988006;28;20515;-50
2021/08/18 08:00:21;;;;;;;4.15;3.38;;;14.80;99.90;;;;;;4985730;28;20054;-50
2021/08/18 08:02:47;;;;;;;4.50;3.15;;;14.90;99.90;;;;;;4986865;28;20045;-51
2021/08/18 08:05:15;;;;;;;4.93;3.28;;;14.90;99.90;;;;;;4984311;28;20025;-49
2021/08/18 08:07:41;;;;;;;6.05;3.22;;;15.00;99.90;;;;;;4987185;28;20015;-49
2021/08/18 08:10:08;;;;;;;5.00;3.58;;;15.20;99.90;;;;;;4989024;28;20101;-49
2021/08/18 08:12:35;;;;;;;8.88;3.88;;;15.20;99.90;;;;;;4986448;28;20015;-51
2021/08/18 08:15:01;;;;;;;4.10;3.70;;;15.40;99.90;;;;;;4988306;28;20022;-49
2021/08/18 08:17:27;;;;;;;3.45;3.05;;;15.40;99.90;;;;;;4985676;28;20018;-50
2021/08/18 08:19:52;;;;;;;4.55;3.75;;;15.50;99.90;;;;;;4987475;28;20034;-49
2021/08/18 08:22:18;;;;;;;4.80;3.42;;;15.50;99.90;;;;;;4985422;28;20031;-50
2021/08/18 08:24:44;;;;;;;4.50;3.08;;;15.50;99.90;;;;;;4987193;28;20022;-49
2021/08/18 08:27:10;;;;;;;6.00;2.90;;;15.50;99.90;;;;;;4987776;28;20108;-49
2021/08/18 08:29:36;;;;;;;6.28;3.92;;;15.60;99.90;;;;;;4989384;28;20026;-50
2021/08/18 08:32:02;;;;;;;6.28;3.60;;;15.50;99.90;;;;;;4982050;28;20027;-49
2021/08/18 08:34:27;;;;;;;4.82;3.75;;;15.50;99.90;;;;;;4984895;28;20022;-53
2021/08/18 08:36:53;;;;;;;5.15;3.15;;;15.60;99.90;;;;;;4988936;28;20032;-48
2021/08/18 08:39:18;;;;;;;7.28;3.38;;;15.50;99.90;;;;;;4983843;28;20054;-48
2021/08/18 08:41:44;;;;;;;4.15;3.20;;;15.50;99.90;;;;;;4989255;28;20212;-49
2021/08/18 08:44:18;;;;;;;6.32;3.78;;;15.40;99.90;;;;;;4981722;28;20038;-48
2021/08/18 08:46:46;;;;;;;5.55;3.25;;;15.40;99.90;;;;;;4989008;28;20496;-50
2021/08/18 08:49:13;;;;;;;7.40;3.55;;;15.40;99.90;;;;;;4980529;28;20038;-48
2021/08/18 08:51:39;;;;;;;8.20;3.85;;;15.40;99.90;;;;;;4988093;28;20033;-48
2021/08/18 08:54:04;;;;;;;5.50;3.05;;;15.40;99.90;;;;;;4986959;28;20031;-47
2021/08/18 08:56:30;;;;;;;5.20;3.88;;;15.30;99.90;;;;;;4984319;28;20015;-49
2021/08/18 08:58:55;;;;;;;4.38;3.40;;;15.20;99.90;;;;;;4988265;28;20050;-47
2021/08/18 09:01:21;;;;;;;6.70;3.60;;;15.20;99.90;;;;;;4978610;28;20022;-50
2021/08/18 09:03:47;;;;;;;5.72;3.00;;;15.20;99.90;;;;;;4988616;28;20025;-49
2021/08/18 09:06:21;;;;;;;6.50;3.83;;;15.20;99.90;;;;;;4988688;28;20035;-49
2021/08/18 09:08:51;;;;;;;5.05;2.97;;;15.30;99.90;;;;;;4985470;28;20030;-49
2021/08/18 09:11:20;;;;;;;4.57;3.45;;;15.40;99.90;;;;;;4982213;28;20021;-48
2021/08/18 09:13:47;;;;;;;7.80;3.35;;;15.40;99.90;;;;;;4988537;28;20507;-48
2021/08/18 09:16:15;;;;;;;4.10;3.38;;;15.40;99.90;;;;;;4985682;28;20019;-50
2021/08/18 09:18:51;;;;;;;4.93;2.97;;;15.40;99.90;;;;;;4987200;28;20023;-49
2021/08/18 09:21:36;;;;;;;8.30;3.70;;;15.50;99.90;;;;;;4988750;28;20014;-50
2021/08/18 09:24:21;;;;;;;5.57;3.20;;;15.50;99.90;;;;;;4985113;28;20105;-48
2021/08/18 09:26:51;;;;;;;7.55;3.65;;;15.60;99.90;;;;;;4988041;28;20023;-48
2021/08/18 09:29:26;;;;;;;7.65;3.00;;;15.60;99.90;;;;;;4988071;28;20022;-49
2021/08/18 09:31:52;;;;;;;4.63;3.03;;;15.70;99.90;;;;;;4988328;28;20497;-47
2021/08/18 09:34:18;;;;;;;4.22;3.60;;;15.90;99.90;;;;;;4986073;28;20044;-47
2021/08/18 09:36:43;;;;;;;4.20;2.92;;;16.10;99.90;;;;;;5007085;28;20029;-49
2021/08/18 09:39:24;;;;;;;8.05;3.40;;;16.40;99.90;;;;;;4986644;28;20026;-48
2021/08/18 09:41:50;;;;;;;6.10;3.20;;;16.30;99.90;;;;;;4985010;28;20070;-47
2021/08/18 09:44:18;;;;;;;6.55;3.33;;;16.30;99.90;;;;;;4986914;28;20082;-50
2021/08/18 09:46:44;;;;;;;6.82;3.28;;;16.20;99.90;;;;;;4991903;28;20097;-46
2021/08/18 09:49:12;;;;;;;5.97;3.30;;;16.20;99.90;;;;;;4983156;28;20038;-50
2021/08/18 09:51:45;;;;;;;3.85;2.67;;;16.10;99.90;;;;;;4991330;28;20038;-51
2021/08/18 09:54:19;;;;;;;7.18;3.53;;;16.20;99.90;;;;;;4989185;28;20023;-48
2021/08/18 09:56:50;;;;;;;5.18;3.13;;;16.10;99.90;;;;;;4990402;28;20022;-49
2021/08/18 09:59:16;;;;;;;6.22;3.45;;;16.20;99.90;;;;;;4986696;28;20030;-49
2021/08/18 10:01:43;;;;;;;6.13;3.30;;;16.30;99.90;;;;;;4988417;28;20092;-48
2021/08/18 10:04:10;;;;;;;9.90;3.90;;;16.40;99.90;;;;;;4989482;28;20679;-48
2021/08/18 10:06:37;;;;;;;10.25;3.78;;;16.30;99.90;;;;;;4985743;28;20027;-47
2021/08/18 10:09:03;;;;;;;8.50;3.65;;;16.40;99.90;;;;;;4991096;28;20026;-47
2021/08/18 10:11:29;;;;;;;6.70;3.75;;;16.40;99.90;;;;;;4987982;28;20041;-49
2021/08/18 10:13:55;;;;;;;5.43;3.45;;;16.50;99.90;;;;;;4990507;28;20030;-48
2021/08/18 10:16:21;;;;;;;5.28;3.25;;;16.50;99.90;;;;;;4987747;28;20054;-47
2021/08/18 10:18:48;;;;;;;10.25;3.33;;;16.40;99.90;;;;;;4988725;28;20491;-49
2021/08/18 10:21:29;;;;;;;4.63;3.50;;;16.40;99.90;;;;;;4987231;28;20015;-49
2021/08/18 10:24:00;;;;;;;7.68;4.88;;;16.40;99.90;;;;;;4987608;28;20496;-49
2021/08/18 10:26:32;;;;;;;7.28;3.72;;;16.40;99.90;;;;;;4990872;28;20077;-50
2021/08/18 10:29:19;;;;;;;7.10;3.35;;;16.40;99.90;;;;;;4990333;28;20030;-50
2021/08/18 10:31:48;;;;;;;6.88;3.47;;;16.50;99.90;;;;;;4986019;28;20045;-49
2021/08/18 10:34:22;;;;;;;7.03;3.60;;;16.60;99.90;;;;;;4987368;28;20248;-49
2021/08/18 10:36:57;;;;;;;5.22;4.20;;;16.70;99.90;;;;;;4984266;28;20400;-51
2021/08/18 10:39:25;;;;;;;9.98;3.90;;;16.80;99.90;;;;;;4987930;28;20361;-47
2021/08/18 10:42:07;;;;;;;6.32;3.53;;;16.90;99.90;;;;;;4990807;28;20085;-49
2021/08/18 10:44:42;;;;;;;5.82;3.50;;;17.00;99.90;;;;;;5009230;23;20053;-50
2021/08/18 10:47:26;;;;;;;4.82;3.38;;;17.10;99.90;;;;;;4990129;28;20014;-52
2021/08/18 10:50:23;;;;;;;8.65;3.97;;;17.10;99.90;;;;;;4990128;28;20476;-51
2021/08/18 10:52:53;;;;;;;7.07;4.60;;;17.30;99.90;;;;;;4986722;28;20018;-53
2021/08/18 10:55:25;;;;;;;8.52;4.47;;;17.30;99.90;;;;;;4985483;28;20011;-50
2021/08/18 10:57:55;;;;;;;5.63;3.97;;;17.40;99.90;;;;;;5005833;28;20217;-51
2021/08/18 11:00:42;;;;;;;8.95;4.05;;;17.40;99.90;;;;;;4984929;28;20018;-53
2021/08/18 11:03:09;;;;;;;11.98;4.55;;;17.50;99.90;;;;;;4988694;28;20049;-49
2021/08/18 11:05:37;;;;;;;7.05;3.78;;;17.60;99.90;;;;;;4990212;28;20027;-49
2021/08/18 11:08:25;;;;;;;6.00;3.70;;;17.70;99.90;;;;;;4990654;28;20029;-50
2021/08/18 11:10:53;;;;;;;6.07;3.70;;;17.80;99.90;;;;;;4990633;28;20378;-50
2021/08/18 11:13:50;;;;;;;6.95;4.32;;;17.90;99.90;;;;;;4986452;28;20117;-49
2021/08/18 11:16:26;;;;;;;7.80;4.25;;;17.90;99.90;;;;;;4989981;28;20630;-55
2021/08/18 11:18:56;;;;;;;9.48;3.97;;;17.90;99.90;;;;;;4990644;28;20428;-53
2021/08/18 11:21:28;;;;;;;9.25;4.60;;;17.90;99.90;;;;;;4990387;28;20018;-49
2021/08/18 11:23:58;;;;;;;6.10;4.57;;;17.90;99.90;;;;;;4989918;28;20030;-49
2021/08/18 11:26:25;;;;;;;11.00;4.47;;;18.00;99.90;;;;;;4987989;28;20029;-48
2021/08/18 11:29:04;;;;;;;6.50;4.18;;;18.00;99.90;;;;;;4981618;28;20023;-56
2021/08/18 11:31:34;;;;;;;8.98;3.60;;;18.10;99.90;;;;;;4988623;28;20026;-52
2021/08/18 11:34:00;;;;;;;7.47;4.53;;;18.10;99.90;;;;;;4989839;28;20022;-52
2021/08/18 11:36:26;;;;;;;9.85;4.60;;;18.20;99.90;;;;;;4989763;28;20445;-55
2021/08/18 11:39:00;;;;;;;9.90;4.28;;;18.20;99.90;;;;;;4989675;28;20053;-50
2021/08/18 11:41:42;;;;;;;7.90;4.00;;;18.10;99.90;;;;;;4988777;28;20623;-51
2021/08/18 11:44:14;;;;;;;5.97;3.95;;;18.10;99.90;;;;;;4989958;28;20034;-48
2021/08/18 11:46:40;;;;;;;10.02;4.05;;;18.10;99.90;;;;;;4986638;28;20064;-48
2021/08/18 11:49:08;;;;;;;7.00;4.32;;;18.20;99.90;;;;;;4989663;28;20053;-49
2021/08/18 11:51:34;;;;;;;6.53;3.75;;;18.20;99.90;;;;;;4989362;28;20084;-48
2021/08/18 11:54:00;;;;;;;7.97;4.15;;;18.30;99.90;;;;;;4988529;28;20026;-50
2021/08/18 11:56:30;;;;;;;5.90;4.30;;;18.40;99.90;;;;;;4989467;28;20029;-52
2021/08/18 11:59:04;;;;;;;10.18;4.88;;;18.60;99.90;;;;;;4989752;28;20117;-50
2021/08/18 12:01:30;;;;;;;5.28;3.88;;;18.70;99.90;;;;;;4989547;28;20077;-50
2021/08/18 12:03:56;;;;;;;7.10;4.50;;;18.80;99.90;;;;;;5004392;28;20121;-51
2021/08/18 12:06:37;;;;;;;9.40;4.15;;;18.80;99.90;;;;;;4987911;28;20022;-48
2021/08/18 12:09:05;;;;;;;6.25;4.68;;;18.60;99.90;;;;;;4989202;28;20030;-49
2021/08/18 12:11:37;;;;;;;9.65;5.03;;;18.50;99.90;;;;;;4989893;28;20027;-51
2021/08/18 12:14:18;;;;;;;8.65;4.35;;;18.50;99.90;;;;;;4988988;28;20014;-54
2021/08/18 12:16:55;;;;;;;11.45;5.35;;;18.40;99.90;;;;;;4988793;28;20116;-50
2021/08/18 12:19:24;;;;;;;6.95;4.00;;;18.40;99.90;;;;;;4989380;28;20228;-50
2021/08/18 12:22:08;;;;;;;10.88;4.88;;;18.40;99.90;;;;;;4989477;28;20021;-52
2021/08/18 12:24:34;;;;;;;5.80;4.32;;;18.40;99.90;;;;;;4988844;28;20018;-53
2021/08/18 12:27:02;;;;;;;9.50;4.47;;;18.50;99.90;;;;;;4989121;28;20181;-51
2021/08/18 12:29:30;;;;;;;5.95;4.13;;;18.70;99.90;;;;;;4988860;28;20019;-53
2021/08/18 12:32:04;;;;;;;6.47;4.00;;;18.80;99.90;;;;;;4989161;28;20022;-50
2021/08/18 12:34:54;;;;;;;8.57;4.53;;;18.90;99.90;;;;;;4988342;28;20024;-54
2021/08/18 12:37:22;;;;;;;7.40;3.72;;;19.10;99.90;;;;;;4982964;28;20058;-54
2021/08/18 12:39:56;;;;;;;6.60;3.85;;;19.20;99.90;;;;;;4983664;28;20023;-50
2021/08/18 12:42:24;;;;;;;10.13;3.88;;;19.20;99.90;;;;;;4979941;28;20022;-49
2021/08/18 12:45:08;;;;;;;11.80;3.45;;;19.10;99.90;;;;;;4984797;28;20129;-53
2021/08/18 12:47:43;;;;;;;4.90;3.80;;;19.00;99.90;;;;;;4983598;28;20122;-53